Řízení letového provozu České republiky
Letiste: LKCV Aktualizace: 24.03.2019 21:01:06  UTC
 METAR LKCV 24.03. 21:00 ...
METAR LKCV 242100Z 28004KT 9999 BKN032 OVC060 08/05 Q1019 NOSIG RMK BLU BLU=
 TAF LKCV 24.03. 17:00 ...
TAF LKCV 241700Z 2418/2518 31008KT 9999 OVC030      TEMPO 2418/2507 6000 OVC020      PROB40 TEMPO 2418/2506 4000 RA BR OVC012      BECMG 2507/2509 28014KT      BECMG 2509/2512 28016G28KT 7000 SHRA FEW020TCU OVC030=